createdAt,value
2018-08-20T00:01:33.541Z,18.10
2018-08-20T00:04:02.924Z,18.00
2018-08-20T00:06:42.863Z,18.10
2018-08-20T00:09:11.122Z,18.10
2018-08-20T00:11:39.376Z,18.10
2018-08-20T00:14:07.630Z,18.00
2018-08-20T00:16:35.886Z,17.90
2018-08-20T00:19:04.128Z,17.90
2018-08-20T00:21:32.383Z,17.90
2018-08-20T00:24:00.646Z,17.80
2018-08-20T00:26:29.276Z,17.60
2018-08-20T00:28:57.537Z,17.50
2018-08-20T00:31:25.790Z,17.40
2018-08-20T00:33:54.039Z,17.40
2018-08-20T00:36:22.299Z,17.40
2018-08-20T00:38:50.541Z,17.30
2018-08-20T00:41:18.803Z,17.30
2018-08-20T00:43:47.077Z,17.30
2018-08-20T00:46:15.342Z,17.30
2018-08-20T00:48:43.644Z,17.30
2018-08-20T00:51:11.914Z,17.30
2018-08-20T00:53:40.154Z,17.30
2018-08-20T00:56:08.412Z,17.20
2018-08-20T00:58:36.689Z,17.20
2018-08-20T01:01:05.125Z,17.20
2018-08-20T01:03:33.493Z,17.10
2018-08-20T01:06:01.747Z,17.10
2018-08-20T01:08:29.993Z,17.10
2018-08-20T01:10:58.374Z,17.10
2018-08-20T01:13:33.266Z,17.10
2018-08-20T01:16:01.502Z,16.90
2018-08-20T01:18:29.993Z,17.00
2018-08-20T01:20:58.238Z,16.90
2018-08-20T01:23:26.543Z,16.80
2018-08-20T01:25:54.795Z,16.80
2018-08-20T01:28:23.067Z,16.70
2018-08-20T01:30:51.313Z,16.80
2018-08-20T01:33:19.611Z,16.70
2018-08-20T01:35:47.875Z,16.70
2018-08-20T01:38:16.142Z,16.80
2018-08-20T01:40:44.422Z,16.70
2018-08-20T01:43:12.685Z,16.70
2018-08-20T01:45:40.936Z,16.70
2018-08-20T01:48:09.314Z,16.70
2018-08-20T01:50:37.574Z,16.60
2018-08-20T01:53:05.843Z,16.70
2018-08-20T01:55:34.093Z,16.60
2018-08-20T01:58:02.356Z,16.60
2018-08-20T02:00:30.614Z,16.60
2018-08-20T02:03:03.382Z,16.50
2018-08-20T02:05:31.762Z,16.40
2018-08-20T02:08:00.266Z,16.20
2018-08-20T02:10:28.501Z,16.00
2018-08-20T02:12:56.786Z,15.90
2018-08-20T02:15:25.333Z,15.80
2018-08-20T02:17:53.789Z,15.60
2018-08-20T02:20:22.047Z,15.50
2018-08-20T02:22:50.334Z,15.40
2018-08-20T02:25:18.594Z,15.30
2018-08-20T02:27:46.875Z,15.30
2018-08-20T02:30:15.142Z,15.20
2018-08-20T02:32:43.409Z,15.20
2018-08-20T02:35:11.657Z,15.10
2018-08-20T02:37:47.295Z,15.10
2018-08-20T02:40:16.759Z,15.10
2018-08-20T02:42:45.070Z,15.00
2018-08-20T02:45:15.440Z,15.00
2018-08-20T02:47:44.235Z,15.00
2018-08-20T02:50:13.242Z,14.80
2018-08-20T02:52:42.263Z,14.80
2018-08-20T02:55:10.538Z,14.70
2018-08-20T02:57:39.135Z,14.60
2018-08-20T03:00:10.185Z,14.60
2018-08-20T03:02:38.469Z,14.70
2018-08-20T03:05:07.101Z,14.60
2018-08-20T03:07:35.350Z,14.60
2018-08-20T03:10:04.154Z,14.60
2018-08-20T03:12:32.403Z,14.70
2018-08-20T03:15:00.673Z,14.70
2018-08-20T03:17:28.989Z,14.80
2018-08-20T03:19:57.222Z,14.90
2018-08-20T03:22:25.491Z,14.80
2018-08-20T03:24:53.758Z,14.70
2018-08-20T03:27:22.018Z,14.60
2018-08-20T03:29:50.272Z,14.50
2018-08-20T03:32:18.550Z,14.50
2018-08-20T03:34:46.806Z,14.40
2018-08-20T03:37:15.078Z,14.40
2018-08-20T03:39:43.340Z,14.40
2018-08-20T03:42:11.624Z,14.30
2018-08-20T03:44:39.906Z,14.30
2018-08-20T03:47:08.158Z,14.20
2018-08-20T03:49:36.429Z,14.10
2018-08-20T03:52:04.694Z,14.00
2018-08-20T03:54:32.978Z,14.10
2018-08-20T03:57:01.243Z,14.00
2018-08-20T03:59:33.607Z,13.90
2018-08-20T04:02:03.363Z,13.90
2018-08-20T04:04:31.831Z,13.90
2018-08-20T04:07:01.663Z,13.80
2018-08-20T04:09:31.000Z,13.80
2018-08-20T04:12:00.074Z,13.70
2018-08-20T04:14:28.370Z,13.80
2018-08-20T04:16:56.862Z,13.70
2018-08-20T04:19:25.127Z,13.80
2018-08-20T04:21:53.394Z,13.80
2018-08-20T04:24:21.696Z,14.00
2018-08-20T04:26:50.586Z,14.00
2018-08-20T04:29:19.223Z,14.10
2018-08-20T04:31:47.627Z,13.90
2018-08-20T04:34:15.926Z,13.80
2018-08-20T04:36:44.183Z,13.90
2018-08-20T04:39:12.461Z,13.90
2018-08-20T04:41:40.737Z,13.90
2018-08-20T04:44:09.447Z,13.90
2018-08-20T04:46:37.705Z,14.00
2018-08-20T04:49:06.029Z,13.90
2018-08-20T04:51:34.359Z,14.00
2018-08-20T04:54:02.628Z,14.00
2018-08-20T04:56:30.906Z,14.00
2018-08-20T04:58:59.168Z,14.10
2018-08-20T05:01:27.493Z,14.20
2018-08-20T05:03:55.798Z,14.20
2018-08-20T05:06:24.055Z,14.20
2018-08-20T05:08:52.340Z,14.20
2018-08-20T05:11:20.599Z,14.30
2018-08-20T05:13:48.855Z,14.50
2018-08-20T05:16:17.146Z,14.50
2018-08-20T05:18:45.423Z,14.60
2018-08-20T05:21:13.709Z,14.70
2018-08-20T05:23:41.968Z,14.70
2018-08-20T05:26:10.279Z,14.80
2018-08-20T05:28:38.544Z,15.00
2018-08-20T05:31:06.840Z,15.10
2018-08-20T05:33:35.110Z,15.20
2018-08-20T05:36:03.410Z,15.20
2018-08-20T05:38:31.686Z,15.40
2018-08-20T05:40:59.995Z,15.50
2018-08-20T05:43:28.271Z,15.50
2018-08-20T05:45:56.576Z,15.60
2018-08-20T05:48:24.816Z,15.70
2018-08-20T05:50:53.335Z,15.80
2018-08-20T05:53:21.679Z,16.00
2018-08-20T05:55:49.967Z,16.10
2018-08-20T05:58:18.219Z,16.20
2018-08-20T06:00:46.963Z,16.30
2018-08-20T06:03:16.147Z,16.50
2018-08-20T06:06:03.258Z,16.50
2018-08-20T06:08:31.543Z,16.70
2018-08-20T06:10:59.837Z,16.80
2018-08-20T06:13:28.146Z,16.90
2018-08-20T06:15:56.438Z,17.10
2018-08-20T06:18:24.706Z,17.30
2018-08-20T06:20:53.194Z,17.40
2018-08-20T06:23:21.564Z,17.40
2018-08-20T06:25:49.895Z,17.60
2018-08-20T06:28:18.248Z,17.70
2018-08-20T06:30:46.506Z,17.80
2018-08-20T06:33:14.768Z,17.90
2018-08-20T06:35:43.037Z,17.90
2018-08-20T06:38:11.384Z,18.00
2018-08-20T06:40:39.626Z,18.20
2018-08-20T06:43:07.911Z,18.40
2018-08-20T06:45:36.203Z,18.50
2018-08-20T06:48:04.719Z,18.60
2018-08-20T06:50:33.006Z,18.80
2018-08-20T06:53:01.314Z,18.90
2018-08-20T06:55:29.675Z,19.10
2018-08-20T06:57:58.167Z,19.20
2018-08-20T07:00:26.430Z,19.40
2018-08-20T07:02:54.702Z,19.60
2018-08-20T07:05:22.962Z,19.70
2018-08-20T07:07:51.276Z,19.80
2018-08-20T07:10:19.539Z,19.90
2018-08-20T07:12:47.794Z,20.10
2018-08-20T07:15:16.349Z,20.30
2018-08-20T07:17:44.755Z,20.50
2018-08-20T07:20:14.523Z,20.70
2018-08-20T07:22:42.920Z,20.80
2018-08-20T07:25:11.267Z,21.00
2018-08-20T07:27:39.563Z,21.10
2018-08-20T07:30:10.855Z,21.40
2018-08-20T07:32:39.262Z,22.30
2018-08-20T07:35:07.654Z,24.10
2018-08-20T07:37:35.925Z,26.20
2018-08-20T07:40:05.728Z,28.00
2018-08-20T07:42:34.115Z,30.20
2018-08-20T07:45:02.310Z,31.60
2018-08-20T07:47:30.624Z,32.80
2018-08-20T07:49:58.915Z,32.90
2018-08-20T07:52:27.312Z,33.50
2018-08-20T07:54:55.624Z,34.00
2018-08-20T07:57:24.029Z,34.50
2018-08-20T07:59:52.384Z,33.60
2018-08-20T08:02:20.673Z,35.50
2018-08-20T08:04:49.078Z,37.00
2018-08-20T08:07:17.368Z,36.60
2018-08-20T08:09:45.635Z,37.20
2018-08-20T08:12:14.520Z,36.80
2018-08-20T08:14:43.355Z,37.70
2018-08-20T08:17:12.989Z,38.50
2018-08-20T08:19:42.435Z,38.90
2018-08-20T08:22:10.896Z,40.00
2018-08-20T08:24:39.166Z,39.60
2018-08-20T08:27:07.618Z,37.90
2018-08-20T08:29:37.009Z,38.20
2018-08-20T08:32:08.096Z,36.90
2018-08-20T08:34:41.738Z,36.00
2018-08-20T08:37:17.552Z,37.90
2018-08-20T08:39:48.468Z,37.80
2018-08-20T08:42:18.455Z,36.60
2018-08-20T08:44:47.893Z,36.40
2018-08-20T08:47:16.497Z,36.30
2018-08-20T08:49:44.981Z,36.90
2018-08-20T08:52:13.747Z,36.60
2018-08-20T08:54:42.111Z,36.40
2018-08-20T08:57:11.042Z,38.20
2018-08-20T08:59:39.634Z,37.00
2018-08-20T09:02:09.750Z,36.90
2018-08-20T09:04:38.447Z,36.70
2018-08-20T09:07:08.649Z,36.60
2018-08-20T09:09:38.838Z,37.40
2018-08-20T09:12:09.509Z,38.10
2018-08-20T09:14:40.613Z,37.30
2018-08-20T09:17:13.530Z,38.30
2018-08-20T09:19:43.731Z,39.20
2018-08-20T09:22:19.421Z,39.50
2018-08-20T09:24:54.780Z,39.90
2018-08-20T09:27:27.695Z,38.40
2018-08-20T09:30:01.464Z,38.10
2018-08-20T09:32:35.393Z,39.20
2018-08-20T09:35:07.310Z,38.50
2018-08-20T09:37:42.963Z,37.50
2018-08-20T09:40:13.644Z,37.30
2018-08-20T09:42:43.911Z,38.60
2018-08-20T09:45:16.721Z,37.90
2018-08-20T09:47:49.384Z,38.50
2018-08-20T09:50:22.708Z,37.50
2018-08-20T09:52:59.161Z,37.60
2018-08-20T09:55:30.573Z,37.10
2018-08-20T09:58:02.347Z,37.50
2018-08-20T10:00:40.018Z,37.80
2018-08-20T10:03:16.018Z,37.90
2018-08-20T10:05:47.875Z,37.80
2018-08-20T10:08:21.149Z,38.30
2018-08-20T10:10:51.731Z,39.20
2018-08-20T10:13:22.656Z,39.40
2018-08-20T10:15:54.273Z,38.20
2018-08-20T10:18:23.742Z,38.30
2018-08-20T10:20:55.293Z,38.00
2018-08-20T10:23:23.857Z,38.80
2018-08-20T10:25:52.940Z,38.50
2018-08-20T10:28:23.815Z,39.00
2018-08-20T10:30:52.295Z,39.30
2018-08-20T10:33:21.125Z,39.40
2018-08-20T10:35:50.643Z,39.80
2018-08-20T10:38:20.105Z,39.70
2018-08-20T10:40:49.970Z,39.10
2018-08-20T10:43:20.555Z,40.40
2018-08-20T10:45:54.888Z,39.60
2018-08-20T10:48:24.394Z,40.20
2018-08-20T10:50:52.707Z,39.70
2018-08-20T10:53:21.501Z,39.50
2018-08-20T10:55:50.094Z,38.80
2018-08-20T10:58:18.522Z,39.50
2018-08-20T11:00:46.982Z,39.10
2018-08-20T11:03:15.446Z,39.10
2018-08-20T11:05:43.896Z,38.80
2018-08-20T11:08:12.458Z,37.90
2018-08-20T11:10:41.842Z,38.40
2018-08-20T11:13:10.300Z,38.30
2018-08-20T11:15:38.770Z,39.00
2018-08-20T11:18:07.353Z,38.10
2018-08-20T11:20:36.030Z,38.50
2018-08-20T11:23:04.582Z,38.30
2018-08-20T11:25:33.035Z,37.20
2018-08-20T11:28:01.430Z,37.20
2018-08-20T11:30:30.043Z,37.00
2018-08-20T11:32:58.450Z,36.10
2018-08-20T11:35:26.980Z,36.40
2018-08-20T11:37:55.513Z,36.20
2018-08-20T11:40:24.218Z,36.20
2018-08-20T11:42:52.674Z,36.00
2018-08-20T11:45:21.096Z,36.00
2018-08-20T11:47:49.453Z,35.90
2018-08-20T11:50:17.951Z,35.00
2018-08-20T11:52:46.297Z,35.70
2018-08-20T11:55:14.642Z,34.90
2018-08-20T11:57:43.154Z,35.20
2018-08-20T12:00:11.833Z,35.80
2018-08-20T12:02:40.715Z,35.60
2018-08-20T12:05:09.989Z,35.00
2018-08-20T12:07:38.482Z,34.80
2018-08-20T12:12:57.463Z,34.50
2018-08-20T12:15:26.053Z,34.70
2018-08-20T12:17:54.544Z,34.80
2018-08-20T12:20:22.941Z,34.10
2018-08-20T12:22:51.656Z,33.20
2018-08-20T12:25:20.123Z,31.90
2018-08-20T12:27:48.602Z,32.00
2018-08-20T12:30:17.060Z,31.70
2018-08-20T12:32:45.490Z,31.70
2018-08-20T12:35:13.854Z,32.50
2018-08-20T12:37:42.161Z,33.00
2018-08-20T12:40:10.620Z,32.60
2018-08-20T12:42:39.076Z,31.50
2018-08-20T12:45:08.210Z,31.10
2018-08-20T12:47:37.143Z,31.20
2018-08-20T12:50:06.115Z,31.50
2018-08-20T12:52:34.481Z,31.70
2018-08-20T12:55:03.082Z,31.50
2018-08-20T12:57:31.946Z,31.60
2018-08-20T13:00:00.234Z,31.10
2018-08-20T13:02:29.086Z,30.70
2018-08-20T13:04:57.457Z,30.70
2018-08-20T13:07:26.037Z,30.80
2018-08-20T13:09:54.351Z,30.90
2018-08-20T13:12:22.622Z,30.90
2018-08-20T13:14:50.903Z,30.80
2018-08-20T13:17:19.166Z,30.50
2018-08-20T13:19:47.438Z,30.40
2018-08-20T13:22:15.703Z,30.60
2018-08-20T13:24:43.969Z,30.50
2018-08-20T13:27:12.571Z,30.00
2018-08-20T13:29:40.860Z,30.20
2018-08-20T13:32:09.150Z,30.50
2018-08-20T13:34:37.410Z,30.80
2018-08-20T13:37:06.338Z,31.20
2018-08-20T13:39:34.890Z,31.20
2018-08-20T13:42:03.212Z,31.10
2018-08-20T13:44:33.615Z,31.40
2018-08-20T13:47:01.868Z,31.40
2018-08-20T13:49:30.421Z,31.70
2018-08-20T13:51:58.763Z,31.50
2018-08-20T13:54:27.061Z,31.00
2018-08-20T13:56:55.338Z,30.80
2018-08-20T13:59:23.595Z,30.60
2018-08-20T14:01:51.903Z,30.50
2018-08-20T14:04:20.192Z,30.70
2018-08-20T14:06:48.735Z,30.90
2018-08-20T14:09:17.052Z,31.10
2018-08-20T14:11:45.342Z,31.20
2018-08-20T14:14:13.610Z,31.00
2018-08-20T14:16:41.914Z,31.10
2018-08-20T14:19:10.190Z,30.80
2018-08-20T14:21:38.503Z,30.40
2018-08-20T14:24:07.174Z,30.10
2018-08-20T14:26:35.491Z,30.10
2018-08-20T14:29:03.799Z,29.90
2018-08-20T14:31:32.159Z,30.20
2018-08-20T14:34:00.456Z,30.30
2018-08-20T14:36:28.814Z,30.40
2018-08-20T14:38:57.138Z,30.50
2018-08-20T14:41:25.406Z,30.40
2018-08-20T14:43:53.668Z,30.10
2018-08-20T14:46:23.155Z,30.00
2018-08-20T14:48:52.657Z,30.00
2018-08-20T14:51:21.048Z,29.80
2018-08-20T14:53:49.318Z,30.00
2018-08-20T14:56:17.601Z,30.00
2018-08-20T14:58:45.906Z,30.00
2018-08-20T15:01:14.216Z,29.90
2018-08-20T15:03:42.666Z,29.80
2018-08-20T15:06:10.988Z,29.80
2018-08-20T15:08:40.101Z,29.60
2018-08-20T15:11:08.706Z,29.50
2018-08-20T15:13:36.992Z,29.60
2018-08-20T15:16:05.347Z,29.50
2018-08-20T15:18:33.567Z,29.60
2018-08-20T15:21:02.022Z,29.70
2018-08-20T15:23:30.708Z,29.50
2018-08-20T15:25:59.031Z,29.20
2018-08-20T15:28:27.314Z,29.10
2018-08-20T15:30:55.587Z,29.40
2018-08-20T15:33:23.864Z,29.70
2018-08-20T15:35:52.110Z,30.00
2018-08-20T15:38:20.551Z,30.10
2018-08-20T15:40:48.873Z,30.10
2018-08-20T15:43:17.231Z,30.10
2018-08-20T15:45:45.515Z,30.30
2018-08-20T15:48:13.770Z,30.30
2018-08-20T15:50:42.133Z,30.00
2018-08-20T15:53:10.424Z,29.80
2018-08-20T15:55:38.787Z,29.50
2018-08-20T15:58:07.219Z,29.50
2018-08-20T16:00:35.485Z,29.50
2018-08-20T16:03:03.895Z,29.00
2018-08-20T16:05:32.167Z,28.70
2018-08-20T16:08:00.540Z,28.60
2018-08-20T16:10:28.835Z,28.50
2018-08-20T16:12:57.097Z,28.40
2018-08-20T16:15:25.383Z,28.40
2018-08-20T16:18:00.310Z,28.40
2018-08-20T16:20:28.606Z,28.40
2018-08-20T16:22:56.922Z,28.50
2018-08-20T16:25:25.202Z,28.50
2018-08-20T16:27:54.002Z,28.50
2018-08-20T16:30:22.291Z,28.30
2018-08-20T16:32:50.601Z,28.10
2018-08-20T16:35:18.878Z,28.00
2018-08-20T16:37:47.158Z,27.90
2018-08-20T16:40:15.473Z,27.80
2018-08-20T16:42:43.812Z,27.60
2018-08-20T16:45:12.102Z,27.60
2018-08-20T16:47:40.635Z,27.60
2018-08-20T16:50:10.783Z,27.50
2018-08-20T16:52:39.051Z,27.50
2018-08-20T16:55:07.966Z,27.50
2018-08-20T16:57:36.990Z,27.40
2018-08-20T17:00:07.933Z,27.40
2018-08-20T17:02:41.013Z,27.40
2018-08-20T17:05:11.173Z,27.40
2018-08-20T17:07:40.264Z,27.30
2018-08-20T17:10:10.971Z,27.30
2018-08-20T17:12:40.275Z,27.20
2018-08-20T17:15:10.218Z,27.20
2018-08-20T17:17:39.764Z,27.10
2018-08-20T17:20:10.036Z,27.00
2018-08-20T17:22:39.391Z,27.00
2018-08-20T17:25:08.697Z,26.80
2018-08-20T17:27:37.860Z,26.70
2018-08-20T17:30:08.468Z,26.60
2018-08-20T17:32:37.303Z,26.50
2018-08-20T17:35:08.301Z,26.40
2018-08-20T17:37:37.540Z,26.30
2018-08-20T17:40:09.170Z,26.20
2018-08-20T17:42:38.238Z,26.10
2018-08-20T17:45:08.805Z,26.10
2018-08-20T17:47:39.921Z,26.00
2018-08-20T17:50:24.022Z,25.90
2018-08-20T17:52:52.896Z,25.80
2018-08-20T17:55:22.139Z,25.70
2018-08-20T17:57:51.322Z,25.60
2018-08-20T18:00:30.180Z,25.60
2018-08-20T18:02:58.495Z,25.50
2018-08-20T18:05:27.330Z,25.40
2018-08-20T18:07:55.725Z,25.30
2018-08-20T18:10:24.687Z,25.20
2018-08-20T18:12:53.520Z,25.10
2018-08-20T18:15:24.473Z,25.00
2018-08-20T18:17:53.556Z,24.90
2018-08-20T18:20:21.842Z,24.80
2018-08-20T18:22:50.257Z,24.80
2018-08-20T18:25:18.614Z,24.70
2018-08-20T18:27:47.227Z,24.50
2018-08-20T18:30:17.687Z,24.30
2018-08-20T18:32:46.489Z,24.10
2018-08-20T18:35:18.770Z,23.90
2018-08-20T18:37:51.070Z,23.70
2018-08-20T18:40:20.135Z,23.60
2018-08-20T18:42:48.430Z,23.40
2018-08-20T18:45:17.146Z,23.30
2018-08-20T18:47:45.435Z,23.10
2018-08-20T18:50:14.161Z,23.00
2018-08-20T18:52:42.434Z,22.90
2018-08-20T18:55:12.224Z,22.70
2018-08-20T18:57:41.043Z,22.60
2018-08-20T19:00:13.017Z,22.50
2018-08-20T19:02:48.268Z,22.40
2018-08-20T19:05:17.879Z,22.20
2018-08-20T19:07:46.489Z,22.10
2018-08-20T19:10:20.054Z,22.00
2018-08-20T19:12:48.345Z,21.90
2018-08-20T19:15:40.520Z,21.80
2018-08-20T19:18:13.754Z,21.70
2018-08-20T19:20:43.810Z,21.50
2018-08-20T19:23:12.872Z,21.40
2018-08-20T19:25:43.007Z,21.30
2018-08-20T19:28:24.331Z,21.20
2018-08-20T19:30:54.299Z,21.20
2018-08-20T19:33:23.375Z,21.20
2018-08-20T19:35:53.345Z,21.20
2018-08-20T19:38:22.982Z,21.20
2018-08-20T19:41:14.805Z,21.10
2018-08-20T19:43:48.523Z,20.90
2018-08-20T19:46:27.932Z,20.70
2018-08-20T19:49:01.966Z,20.60
2018-08-20T19:52:28.654Z,20.50
2018-08-20T19:55:02.500Z,20.50
2018-08-20T19:57:32.973Z,20.40
2018-08-20T20:00:01.855Z,20.40
2018-08-20T20:02:30.741Z,20.30
2018-08-20T20:05:04.257Z,20.20
2018-08-20T20:07:34.662Z,20.10
2018-08-20T20:10:10.263Z,20.10
2018-08-20T20:12:44.725Z,20.10
2018-08-20T20:15:13.753Z,20.10
2018-08-20T20:17:42.645Z,19.90
2018-08-20T20:20:11.461Z,19.80
2018-08-20T20:22:40.225Z,19.70
2018-08-20T20:25:09.541Z,19.70
2018-08-20T20:27:38.613Z,19.70
2018-08-20T20:30:07.874Z,19.60
2018-08-20T20:32:36.884Z,19.60
2018-08-20T20:35:07.422Z,19.60
2018-08-20T20:37:36.659Z,19.70
2018-08-20T20:40:05.371Z,19.90
2018-08-20T20:42:33.749Z,19.80
2018-08-20T20:45:02.196Z,19.70
2018-08-20T20:47:30.789Z,19.50
2018-08-20T20:49:59.110Z,19.40
2018-08-20T20:52:27.514Z,19.30
2018-08-20T20:54:55.940Z,19.40
2018-08-20T20:57:24.312Z,19.40
2018-08-20T20:59:52.702Z,19.50
2018-08-20T21:02:21.002Z,19.50
2018-08-20T21:04:49.282Z,19.30
2018-08-20T21:07:22.287Z,19.30
2018-08-20T21:09:50.544Z,19.10
2018-08-20T21:12:19.153Z,19.00
2018-08-20T21:14:47.514Z,19.10
2018-08-20T21:17:15.792Z,19.30
2018-08-20T21:19:44.068Z,19.40
2018-08-20T21:22:12.530Z,19.40
2018-08-20T21:24:40.812Z,19.50
2018-08-20T21:27:13.939Z,19.40
2018-08-20T21:29:42.590Z,19.30
2018-08-20T21:32:10.860Z,19.30
2018-08-20T21:34:41.733Z,19.20
2018-08-20T21:37:10.651Z,19.10
2018-08-20T21:39:39.438Z,19.10
2018-08-20T21:42:07.743Z,19.20
2018-08-20T21:44:36.086Z,19.10
2018-08-20T21:47:27.171Z,19.20
2018-08-20T21:49:55.521Z,19.00
2018-08-20T21:54:57.798Z,18.60
2018-08-20T21:57:26.115Z,18.30
2018-08-20T22:00:03.418Z,18.30
2018-08-20T22:02:32.652Z,18.30
2018-08-20T22:05:00.950Z,18.40
2018-08-20T22:07:29.325Z,18.50
2018-08-20T22:09:57.600Z,18.60
2018-08-20T22:12:25.896Z,18.60
2018-08-20T22:14:54.186Z,18.60
2018-08-20T22:17:27.926Z,18.60
2018-08-20T22:19:56.212Z,18.60
2018-08-20T22:22:26.758Z,18.60
2018-08-20T22:25:00.368Z,18.30
2018-08-20T22:27:29.735Z,18.10
2018-08-20T22:30:01.958Z,18.10
2018-08-20T22:32:30.425Z,18.10
2018-08-20T22:34:58.913Z,18.10
2018-08-20T22:37:27.195Z,17.90
2018-08-20T22:40:00.742Z,17.80
2018-08-20T22:42:41.426Z,17.70
2018-08-20T22:45:10.823Z,17.70
2018-08-20T22:47:39.222Z,17.70
2018-08-20T22:50:07.514Z,17.80
2018-08-20T22:52:35.791Z,17.90
2018-08-20T22:55:04.884Z,17.90
2018-08-20T22:57:33.178Z,17.90
2018-08-20T23:00:03.475Z,17.80
2018-08-20T23:02:31.774Z,17.60
2018-08-20T23:05:01.827Z,17.50
2018-08-20T23:07:30.127Z,17.40
2018-08-20T23:09:58.445Z,17.30
2018-08-20T23:12:32.833Z,17.20
2018-08-20T23:15:01.561Z,17.10
2018-08-20T23:17:29.815Z,17.20
2018-08-20T23:19:58.112Z,17.40
2018-08-20T23:22:26.386Z,17.40
2018-08-20T23:24:57.473Z,17.40
2018-08-20T23:27:44.414Z,17.40
2018-08-20T23:30:14.126Z,17.40
2018-08-20T23:32:42.415Z,17.40
2018-08-20T23:35:10.699Z,17.50
2018-08-20T23:37:38.990Z,17.50
2018-08-20T23:40:07.292Z,17.40
2018-08-20T23:42:35.747Z,17.50
2018-08-20T23:45:04.465Z,17.50
2018-08-20T23:47:32.754Z,17.50
2018-08-20T23:50:01.072Z,17.50
2018-08-20T23:52:29.350Z,17.50
2018-08-20T23:54:57.821Z,17.60
2018-08-20T23:57:26.098Z,17.70
2018-08-20T23:59:54.382Z,17.70
